Terminal Aerodrome Forecast
Issued by NWS

Home | Current Version | Previous Version | Text Only | Print | Product List | Glossary On
Versions: 1 2 3 4 5 6 7 8 9 10 11 12 13 14 15 16 17 18 19 20 21 22 23 24 25 26 27 28 29
000
FTUS41 KCAR 011400 AAD
TAFFVE
TAF AMD
KFVE 011428Z 0114/0212 19004KT P6SM SCT010
     FM011500 21008KT P6SM SCT025
     FM012000 21008KT P6SM VCSH BKN040
     FM020200 21005KT P6SM SCT022
     FM020500 19004KT 1SM BR BKN004=

USA.gov is the U.S. government's official web portal to all federal, state and local government web resources and services.